sensor_id;sensor_type;location;lat;lon;timestamp;pressure;altitude;pressure_sealevel;temperature;humidity
28628;BME280;15815;46.760;19.604;2023-06-22T00:02:18;100581.63;;;23.65;68.28
28628;BME280;15815;46.760;19.604;2023-06-22T00:04:44;100562.25;;;23.51;68.89
28628;BME280;15815;46.760;19.604;2023-06-22T00:07:09;100554.44;;;23.52;69.38
28628;BME280;15815;46.760;19.604;2023-06-22T00:09:36;100558.88;;;23.53;69.45
28628;BME280;15815;46.760;19.604;2023-06-22T00:12:01;100566.88;;;23.49;69.67
28628;BME280;15815;46.760;19.604;2023-06-22T00:14:28;100553.72;;;23.42;69.89
28628;BME280;15815;46.760;19.604;2023-06-22T00:16:54;100539.66;;;23.44;70.11
28628;BME280;15815;46.760;19.604;2023-06-22T00:19:20;100543.22;;;23.39;70.70
28628;BME280;15815;46.760;19.604;2023-06-22T00:21:46;100528.75;;;23.33;70.55
28628;BME280;15815;46.760;19.604;2023-06-22T00:24:11;100539.97;;;23.46;70.05
28628;BME280;15815;46.760;19.604;2023-06-22T00:26:38;100533.09;;;23.29;71.44
28628;BME280;15815;46.760;19.604;2023-06-22T00:29:03;100509.47;;;23.10;71.79
28628;BME280;15815;46.760;19.604;2023-06-22T00:31:29;100520.38;;;23.21;71.29
28628;BME280;15815;46.760;19.604;2023-06-22T00:33:54;100517.81;;;23.23;71.31
28628;BME280;15815;46.760;19.604;2023-06-22T00:36:22;100509.69;;;23.21;71.91
28628;BME280;15815;46.760;19.604;2023-06-22T00:38:47;100522.88;;;23.28;71.24
28628;BME280;15815;46.760;19.604;2023-06-22T00:41:13;100531.84;;;23.21;71.87
28628;BME280;15815;46.760;19.604;2023-06-22T00:43:38;100543.94;;;23.25;71.36
28628;BME280;15815;46.760;19.604;2023-06-22T00:46:04;100538.56;;;23.18;71.81
28628;BME280;15815;46.760;19.604;2023-06-22T00:48:32;100534.09;;;23.17;72.51
28628;BME280;15815;46.760;19.604;2023-06-22T00:50:57;100523.19;;;23.06;72.76
28628;BME280;15815;46.760;19.604;2023-06-22T00:53:24;100533.25;;;23.01;73.05
28628;BME280;15815;46.760;19.604;2023-06-22T00:55:50;100527.97;;;23.00;73.08
28628;BME280;15815;46.760;19.604;2023-06-22T00:58:15;100525.59;;;22.98;73.00
28628;BME280;15815;46.760;19.604;2023-06-22T01:00:41;100504.78;;;22.89;73.00
28628;BME280;15815;46.760;19.604;2023-06-22T01:03:07;100525.59;;;22.98;73.53
28628;BME280;15815;46.760;19.604;2023-06-22T01:05:33;100516.94;;;22.84;74.86
28628;BME280;15815;46.760;19.604;2023-06-22T01:16:07;100494.72;;;22.60;76.61
28628;BME280;15815;46.760;19.604;2023-06-22T01:18:40;100483.78;;;22.49;77.20
28628;BME280;15815;46.760;19.604;2023-06-22T01:21:14;100486.97;;;22.42;78.30
28628;BME280;15815;46.760;19.604;2023-06-22T01:24:03;100487.28;;;22.44;77.94
28628;BME280;15815;46.760;19.604;2023-06-22T01:29:12;100479.69;;;22.32;78.87
28628;BME280;15815;46.760;19.604;2023-06-22T01:31:40;100495.91;;;22.35;79.33
28628;BME280;15815;46.760;19.604;2023-06-22T01:34:09;100501.63;;;22.35;79.05
28628;BME280;15815;46.760;19.604;2023-06-22T01:36:36;100505.28;;;22.36;79.36
28628;BME280;15815;46.760;19.604;2023-06-22T01:39:04;100496.69;;;22.36;78.73
28628;BME280;15815;46.760;19.604;2023-06-22T01:41:34;100483.50;;;22.38;77.80
28628;BME280;15815;46.760;19.604;2023-06-22T01:44:00;100492.56;;;22.37;78.37
28628;BME280;15815;46.760;19.604;2023-06-22T01:46:26;100506.53;;;22.44;78.41
28628;BME280;15815;46.760;19.604;2023-06-22T01:48:53;100502.09;;;22.43;78.30
28628;BME280;15815;46.760;19.604;2023-06-22T01:51:19;100502.56;;;22.50;78.13
28628;BME280;15815;46.760;19.604;2023-06-22T01:53:45;100484.50;;;22.26;79.29
28628;BME280;15815;46.760;19.604;2023-06-22T01:56:12;100499.69;;;22.41;78.53
28628;BME280;15815;46.760;19.604;2023-06-22T01:58:50;100509.56;;;22.40;79.58
28628;BME280;15815;46.760;19.604;2023-06-22T02:01:20;100515.28;;;22.40;79.07
28628;BME280;15815;46.760;19.604;2023-06-22T02:06:18;100527.72;;;22.46;78.46
28628;BME280;15815;46.760;19.604;2023-06-22T02:08:54;100523.22;;;22.45;79.45
28628;BME280;15815;46.760;19.604;2023-06-22T02:11:23;100514.97;;;22.47;78.51
28628;BME280;15815;46.760;19.604;2023-06-22T02:13:51;100521.03;;;22.40;78.30
28628;BME280;15815;46.760;19.604;2023-06-22T02:16:17;100523.22;;;22.45;78.34
28628;BME280;15815;46.760;19.604;2023-06-22T02:18:48;100522.78;;;22.38;79.36
28628;BME280;15815;46.760;19.604;2023-06-22T02:21:14;100524.38;;;22.39;78.91
28628;BME280;15815;46.760;19.604;2023-06-22T02:23:39;100516.31;;;22.28;79.16
28628;BME280;15815;46.760;19.604;2023-06-22T02:26:05;100526.81;;;22.22;80.16
28628;BME280;15815;46.760;19.604;2023-06-22T02:28:30;100518.72;;;22.20;79.69
28628;BME280;15815;46.760;19.604;2023-06-22T02:30:56;100533.97;;;22.27;80.06
28628;BME280;15815;46.760;19.604;2023-06-22T02:33:22;100526.81;;;22.13;80.93
28628;BME280;15815;46.760;19.604;2023-06-22T02:35:47;100522.84;;;21.92;81.53
28628;BME280;15815;46.760;19.604;2023-06-22T02:38:13;100530.81;;;22.06;80.95
28628;BME280;15815;46.760;19.604;2023-06-22T02:40:38;100537.00;;;21.96;81.89
28628;BME280;15815;46.760;19.604;2023-06-22T02:43:06;100536.53;;;22.06;81.44
28628;BME280;15815;46.760;19.604;2023-06-22T02:45:31;100532.88;;;22.06;81.18
28628;BME280;15815;46.760;19.604;2023-06-22T02:47:57;100529.34;;;22.02;81.38
28628;BME280;15815;46.760;19.604;2023-06-22T02:50:23;100517.28;;;21.98;81.24
28628;BME280;15815;46.760;19.604;2023-06-22T02:52:48;100511.84;;;21.90;81.65
28628;BME280;15815;46.760;19.604;2023-06-22T02:55:14;100543.50;;;21.96;81.97
28628;BME280;15815;46.760;19.604;2023-06-22T02:57:39;100542.25;;;21.97;82.25
28628;BME280;15815;46.760;19.604;2023-06-22T03:00:07;100535.72;;;21.97;81.89
28628;BME280;15815;46.760;19.604;2023-06-22T03:02:32;100544.94;;;22.10;81.59
28628;BME280;15815;46.760;19.604;2023-06-22T03:04:58;100547.97;;;22.06;81.87
28628;BME280;15815;46.760;19.604;2023-06-22T03:07:23;100550.03;;;21.97;83.25
28628;BME280;15815;46.760;19.604;2023-06-22T03:09:49;100561.47;;;21.97;83.94
28628;BME280;15815;46.760;19.604;2023-06-22T03:12:14;100560.19;;;21.88;84.61
28628;BME280;15815;46.760;19.604;2023-06-22T03:14:46;100569.41;;;22.02;83.80
28628;BME280;15815;46.760;19.604;2023-06-22T03:17:12;100575.94;;;22.02;83.87
28628;BME280;15815;46.760;19.604;2023-06-22T03:19:37;100582.63;;;21.99;84.38
28628;BME280;15815;46.760;19.604;2023-06-22T03:22:03;100572.94;;;22.15;82.95
28628;BME280;15815;46.760;19.604;2023-06-22T03:24:28;100573.59;;;22.19;82.73
28628;BME280;15815;46.760;19.604;2023-06-22T03:26:54;100571.16;;;22.17;82.37
28628;BME280;15815;46.760;19.604;2023-06-22T03:29:19;100571.97;;;22.18;82.37
28628;BME280;15815;46.760;19.604;2023-06-22T03:31:45;100580.56;;;22.18;82.59
28628;BME280;15815;46.760;19.604;2023-06-22T03:34:11;100571.03;;;22.21;82.14
28628;BME280;15815;46.760;19.604;2023-06-22T03:36:36;100584.38;;;22.24;82.53
28628;BME280;15815;46.760;19.604;2023-06-22T03:39:02;100579.91;;;22.32;82.08
28628;BME280;15815;46.760;19.604;2023-06-22T03:41:27;100577.06;;;22.32;81.66
28628;BME280;15815;46.760;19.604;2023-06-22T03:43:53;100574.47;;;22.43;81.46
28628;BME280;15815;46.760;19.604;2023-06-22T03:46:19;100579.56;;;22.48;80.84
28628;BME280;15815;46.760;19.604;2023-06-22T03:48:44;100580.50;;;22.55;80.87
28628;BME280;15815;46.760;19.604;2023-06-22T03:51:10;100578.88;;;22.63;80.62
28628;BME280;15815;46.760;19.604;2023-06-22T03:53:35;100573.16;;;22.63;80.83
28628;BME280;15815;46.760;19.604;2023-06-22T03:56:01;100575.19;;;22.71;80.55
28628;BME280;15815;46.760;19.604;2023-06-22T03:58:26;100583.47;;;22.78;80.03
28628;BME280;15815;46.760;19.604;2023-06-22T04:00:52;100572.63;;;22.73;80.41
28628;BME280;15815;46.760;19.604;2023-06-22T04:03:18;100574.25;;;22.84;79.97
28628;BME280;15815;46.760;19.604;2023-06-22T04:05:44;100565.47;;;22.87;79.66
28628;BME280;15815;46.760;19.604;2023-06-22T04:08:10;100558.09;;;22.95;79.04
28628;BME280;15815;46.760;19.604;2023-06-22T04:10:36;100569.69;;;23.01;79.35
28628;BME280;15815;46.760;19.604;2023-06-22T04:13:01;100564.59;;;23.05;78.96
28628;BME280;15815;46.760;19.604;2023-06-22T04:15:27;100565.66;;;23.17;78.75
28628;BME280;15815;46.760;19.604;2023-06-22T04:17:55;100578.69;;;23.18;78.91
28628;BME280;15815;46.760;19.604;2023-06-22T04:20:21;100568.81;;;23.19;79.17
28628;BME280;15815;46.760;19.604;2023-06-22T04:22:46;100571.69;;;23.19;79.20
28628;BME280;15815;46.760;19.604;2023-06-22T04:25:12;100563.25;;;23.15;79.17
28628;BME280;15815;46.760;19.604;2023-06-22T04:27:37;100563.69;;;23.23;78.73
28628;BME280;15815;46.760;19.604;2023-06-22T04:30:03;100568.59;;;23.31;78.78
28628;BME280;15815;46.760;19.604;2023-06-22T04:32:29;100579.81;;;23.44;78.43
28628;BME280;15815;46.760;19.604;2023-06-22T04:34:55;100547.75;;;23.31;78.20
28628;BME280;15815;46.760;19.604;2023-06-22T04:37:20;100586.16;;;23.57;77.99
28628;BME280;15815;46.760;19.604;2023-06-22T04:39:46;100579.75;;;23.62;77.70
28628;BME280;15815;46.760;19.604;2023-06-22T04:42:15;100579.56;;;23.66;77.53
28628;BME280;15815;46.760;19.604;2023-06-22T04:44:40;100577.28;;;23.70;77.11
28628;BME280;15815;46.760;19.604;2023-06-22T04:47:06;100586.69;;;23.94;76.27
28628;BME280;15815;46.760;19.604;2023-06-22T04:49:31;100583.00;;;23.94;76.02
28628;BME280;15815;46.760;19.604;2023-06-22T04:51:57;100587.47;;;23.95;76.27
28628;BME280;15815;46.760;19.604;2023-06-22T04:54:23;100591.84;;;24.05;75.78
28628;BME280;15815;46.760;19.604;2023-06-22T04:56:48;100598.19;;;24.09;75.40
28628;BME280;15815;46.760;19.604;2023-06-22T04:59:15;100583.47;;;24.16;75.01
28628;BME280;15815;46.760;19.604;2023-06-22T05:01:40;100595.47;;;24.29;75.45
28628;BME280;15815;46.760;19.604;2023-06-22T05:04:06;100561.09;;;24.20;74.80
28628;BME280;15815;46.760;19.604;2023-06-22T05:06:31;100567.81;;;24.17;74.53
28628;BME280;15815;46.760;19.604;2023-06-22T05:08:57;100577.56;;;24.34;74.25
28628;BME280;15815;46.760;19.604;2023-06-22T05:11:24;100557.44;;;24.34;74.00
28628;BME280;15815;46.760;19.604;2023-06-22T05:13:50;100577.78;;;24.46;73.82
28628;BME280;15815;46.760;19.604;2023-06-22T05:16:16;100587.69;;;24.45;73.52
28628;BME280;15815;46.760;19.604;2023-06-22T05:18:41;100564.28;;;24.52;72.35
28628;BME280;15815;46.760;19.604;2023-06-22T05:21:07;100590.25;;;24.72;72.39
28628;BME280;15815;46.760;19.604;2023-06-22T05:23:32;100589.84;;;24.79;71.64
28628;BME280;15815;46.760;19.604;2023-06-22T05:25:58;100597.81;;;24.99;71.27
28628;BME280;15815;46.760;19.604;2023-06-22T05:28:23;100606.50;;;24.90;71.25
28628;BME280;15815;46.760;19.604;2023-06-22T05:30:49;100618.00;;;25.05;71.51
28628;BME280;15815;46.760;19.604;2023-06-22T05:33:15;100619.75;;;25.17;71.26
28628;BME280;15815;46.760;19.604;2023-06-22T05:35:40;100626.13;;;25.21;71.16
28628;BME280;15815;46.760;19.604;2023-06-22T05:38:06;100629.97;;;25.18;70.45
28628;BME280;15815;46.760;19.604;2023-06-22T05:40:31;100615.22;;;24.95;70.04
28628;BME280;15815;46.760;19.604;2023-06-22T05:42:57;100626.63;;;25.05;70.01
28628;BME280;15815;46.760;19.604;2023-06-22T05:45:22;100639.94;;;25.02;71.01
28628;BME280;15815;46.760;19.604;2023-06-22T05:47:48;100640.03;;;25.08;70.61
28628;BME280;15815;46.760;19.604;2023-06-22T05:50:13;100624.34;;;24.94;71.00
28628;BME280;15815;46.760;19.604;2023-06-22T05:52:39;100642.41;;;24.94;70.45
28628;BME280;15815;46.760;19.604;2023-06-22T05:55:05;100637.06;;;25.02;70.25
28628;BME280;15815;46.760;19.604;2023-06-22T05:57:30;100640.31;;;25.10;70.16
28628;BME280;15815;46.760;19.604;2023-06-22T05:59:56;100646.75;;;25.19;70.25
28628;BME280;15815;46.760;19.604;2023-06-22T06:02:21;100661.97;;;25.40;69.88
28628;BME280;15815;46.760;19.604;2023-06-22T06:04:47;100665.16;;;25.42;70.12
28628;BME280;15815;46.760;19.604;2023-06-22T06:07:12;100656.81;;;25.44;69.39
28628;BME280;15815;46.760;19.604;2023-06-22T06:09:38;100657.00;;;25.55;69.46
28628;BME280;15815;46.760;19.604;2023-06-22T06:12:03;100656.00;;;25.58;69.00
28628;BME280;15815;46.760;19.604;2023-06-22T06:14:29;100651.88;;;26.00;68.59
28628;BME280;15815;46.760;19.604;2023-06-22T06:16:55;100651.50;;;25.93;67.28
28628;BME280;15815;46.760;19.604;2023-06-22T06:19:20;100628.81;;;26.00;67.02
28628;BME280;15815;46.760;19.604;2023-06-22T06:21:46;100657.03;;;26.57;66.25
28628;BME280;15815;46.760;19.604;2023-06-22T06:24:11;100651.53;;;27.11;65.51
28628;BME280;15815;46.760;19.604;2023-06-22T06:26:37;100664.09;;;27.77;65.32
28628;BME280;15815;46.760;19.604;2023-06-22T06:29:03;100660.47;;;28.41;64.16
28628;BME280;15815;46.760;19.604;2023-06-22T06:31:28;100660.34;;;28.95;64.29
28628;BME280;15815;46.760;19.604;2023-06-22T06:33:54;100673.69;;;28.70;64.10
28628;BME280;15815;46.760;19.604;2023-06-22T06:36:23;100672.41;;;28.77;63.29
28628;BME280;15815;46.760;19.604;2023-06-22T06:38:49;100673.66;;;28.53;61.71
28628;BME280;15815;46.760;19.604;2023-06-22T06:41:16;100675.16;;;28.32;61.43
28628;BME280;15815;46.760;19.604;2023-06-22T06:43:42;100676.06;;;28.07;61.25
28628;BME280;15815;46.760;19.604;2023-06-22T06:46:08;100666.59;;;28.00;60.45
28628;BME280;15815;46.760;19.604;2023-06-22T06:48:33;100669.38;;;28.26;60.33
28628;BME280;15815;46.760;19.604;2023-06-22T06:50:59;100667.53;;;28.29;59.18
28628;BME280;15815;46.760;19.604;2023-06-22T06:53:24;100669.28;;;28.86;58.28
28628;BME280;15815;46.760;19.604;2023-06-22T06:55:50;100656.59;;;28.67;58.81
28628;BME280;15815;46.760;19.604;2023-06-22T06:58:15;100643.63;;;28.28;59.05
28628;BME280;15815;46.760;19.604;2023-06-22T07:00:41;100645.47;;;28.37;58.98
28628;BME280;15815;46.760;19.604;2023-06-22T07:03:07;100639.94;;;28.28;58.57
28628;BME280;15815;46.760;19.604;2023-06-22T07:05:35;100642.56;;;28.31;58.95
28628;BME280;15815;46.760;19.604;2023-06-22T07:08:02;100653.44;;;28.65;57.70
28628;BME280;15815;46.760;19.604;2023-06-22T07:10:29;100642.13;;;28.50;56.81
28628;BME280;15815;46.760;19.604;2023-06-22T07:12:54;100631.88;;;28.66;57.36
28628;BME280;15815;46.760;19.604;2023-06-22T07:15:20;100643.50;;;29.21;57.00
28628;BME280;15815;46.760;19.604;2023-06-22T07:17:45;100653.16;;;29.80;55.05
28628;BME280;15815;46.760;19.604;2023-06-22T07:20:11;100645.16;;;30.20;53.00
28628;BME280;15815;46.760;19.604;2023-06-22T07:22:41;100650.44;;;30.10;54.73
28628;BME280;15815;46.760;19.604;2023-06-22T07:25:07;100645.09;;;30.31;53.46
28628;BME280;15815;46.760;19.604;2023-06-22T07:27:32;100637.00;;;30.59;52.95
28628;BME280;15815;46.760;19.604;2023-06-22T07:29:58;100636.78;;;30.98;51.30
28628;BME280;15815;46.760;19.604;2023-06-22T07:32:23;100643.44;;;31.53;51.16
28628;BME280;15815;46.760;19.604;2023-06-22T07:34:49;100640.84;;;31.74;49.44
28628;BME280;15815;46.760;19.604;2023-06-22T07:37:14;100641.09;;;31.46;48.81
28628;BME280;15815;46.760;19.604;2023-06-22T07:39:40;100638.81;;;32.12;47.57
28628;BME280;15815;46.760;19.604;2023-06-22T07:42:06;100646.78;;;32.68;47.02
28628;BME280;15815;46.760;19.604;2023-06-22T07:44:31;100631.81;;;33.41;45.57
28628;BME280;15815;46.760;19.604;2023-06-22T07:46:57;100643.31;;;33.92;45.81
28628;BME280;15815;46.760;19.604;2023-06-22T07:49:22;100638.81;;;33.19;46.50
28628;BME280;15815;46.760;19.604;2023-06-22T07:51:48;100640.31;;;32.19;46.03
28628;BME280;15815;46.760;19.604;2023-06-22T07:54:13;100631.16;;;32.34;46.20
28628;BME280;15815;46.760;19.604;2023-06-22T07:56:39;100637.59;;;33.15;43.53
28628;BME280;15815;46.760;19.604;2023-06-22T07:59:04;100635.81;;;33.25;43.50
28628;BME280;15815;46.760;19.604;2023-06-22T08:01:30;100637.88;;;32.79;44.28
28628;BME280;15815;46.760;19.604;2023-06-22T08:03:55;100633.34;;;32.46;44.74
28628;BME280;15815;46.760;19.604;2023-06-22T08:06:21;100630.75;;;32.43;45.00
28628;BME280;15815;46.760;19.604;2023-06-22T08:08:46;100633.38;;;32.78;43.45
28628;BME280;15815;46.760;19.604;2023-06-22T08:11:12;100636.00;;;33.14;43.17
28628;BME280;15815;46.760;19.604;2023-06-22T08:13:37;100646.44;;;33.81;42.75
28628;BME280;15815;46.760;19.604;2023-06-22T08:16:03;100639.13;;;34.40;41.88
28628;BME280;15815;46.760;19.604;2023-06-22T08:18:30;100638.63;;;34.02;43.18
28628;BME280;15815;46.760;19.604;2023-06-22T08:20:55;100637.22;;;34.43;41.92
28628;BME280;15815;46.760;19.604;2023-06-22T08:23:21;100637.91;;;35.25;40.73
28628;BME280;15815;46.760;19.604;2023-06-22T08:25:47;100636.41;;;35.52;41.15
28628;BME280;15815;46.760;19.604;2023-06-22T08:28:16;100626.19;;;35.67;40.69
28628;BME280;15815;46.760;19.604;2023-06-22T08:30:41;100638.09;;;36.33;39.60
28628;BME280;15815;46.760;19.604;2023-06-22T08:33:07;100622.22;;;36.65;39.40
28628;BME280;15815;46.760;19.604;2023-06-22T08:35:32;100625.06;;;36.42;39.47
28628;BME280;15815;46.760;19.604;2023-06-22T08:37:58;100635.06;;;36.46;37.37
28628;BME280;15815;46.760;19.604;2023-06-22T08:40:24;100637.63;;;36.58;38.45
28628;BME280;15815;46.760;19.604;2023-06-22T08:42:49;100628.19;;;37.41;38.90
28628;BME280;15815;46.760;19.604;2023-06-22T08:45:18;100632.09;;;37.66;37.42
28628;BME280;15815;46.760;19.604;2023-06-22T08:47:44;100631.31;;;37.43;37.19
28628;BME280;15815;46.760;19.604;2023-06-22T08:50:10;100629.19;;;37.36;37.45
28628;BME280;15815;46.760;19.604;2023-06-22T08:52:37;100627.63;;;37.58;37.10
28628;BME280;15815;46.760;19.604;2023-06-22T08:55:03;100615.13;;;37.27;37.49
28628;BME280;15815;46.760;19.604;2023-06-22T08:57:29;100618.22;;;37.74;36.16
28628;BME280;15815;46.760;19.604;2023-06-22T08:59:55;100616.06;;;37.52;36.88
28628;BME280;15815;46.760;19.604;2023-06-22T09:02:20;100615.28;;;37.82;36.94
28628;BME280;15815;46.760;19.604;2023-06-22T09:04:46;100609.16;;;38.51;36.86
28628;BME280;15815;46.760;19.604;2023-06-22T09:07:12;100623.38;;;38.70;35.69
28628;BME280;15815;46.760;19.604;2023-06-22T09:09:37;100614.09;;;38.81;36.17
28628;BME280;15815;46.760;19.604;2023-06-22T09:12:04;100621.28;;;39.20;35.87
28628;BME280;15815;46.760;19.604;2023-06-22T09:14:29;100622.53;;;39.34;36.06
28628;BME280;15815;46.760;19.604;2023-06-22T09:16:55;100610.56;;;39.57;36.44
28628;BME280;15815;46.760;19.604;2023-06-22T09:19:20;100611.69;;;39.62;35.03
28628;BME280;15815;46.760;19.604;2023-06-22T09:21:46;100607.72;;;39.24;35.85
28628;BME280;15815;46.760;19.604;2023-06-22T09:24:11;100604.16;;;39.01;35.59
28628;BME280;15815;46.760;19.604;2023-06-22T09:26:37;100602.19;;;39.53;33.52
28628;BME280;15815;46.760;19.604;2023-06-22T09:29:05;100590.72;;;38.90;34.41
28628;BME280;15815;46.760;19.604;2023-06-22T09:31:30;100596.22;;;39.19;34.38
28628;BME280;15815;46.760;19.604;2023-06-22T09:33:56;100607.41;;;40.14;35.24
28628;BME280;15815;46.760;19.604;2023-06-22T09:36:21;100589.63;;;39.70;34.04
28628;BME280;15815;46.760;19.604;2023-06-22T09:38:49;100590.44;;;39.88;34.41
28628;BME280;15815;46.760;19.604;2023-06-22T09:41:14;100590.13;;;40.72;33.70
28628;BME280;15815;46.760;19.604;2023-06-22T09:43:40;100581.34;;;39.59;33.87
28628;BME280;15815;46.760;19.604;2023-06-22T09:46:06;100591.13;;;39.96;33.86
28628;BME280;15815;46.760;19.604;2023-06-22T09:48:31;100583.50;;;39.76;34.26
28628;BME280;15815;46.760;19.604;2023-06-22T09:50:57;100579.81;;;40.37;33.24
28628;BME280;15815;46.760;19.604;2023-06-22T09:53:23;100587.59;;;40.59;32.89
28628;BME280;15815;46.760;19.604;2023-06-22T09:55:49;100591.56;;;39.33;33.53
28628;BME280;15815;46.760;19.604;2023-06-22T09:58:14;100585.97;;;40.04;33.02
28628;BME280;15815;46.760;19.604;2023-06-22T10:00:40;100587.06;;;39.74;33.64
28628;BME280;15815;46.760;19.604;2023-06-22T10:03:05;100581.00;;;37.92;34.97
28628;BME280;15815;46.760;19.604;2023-06-22T10:05:31;100582.13;;;38.52;36.42
28628;BME280;15815;46.760;19.604;2023-06-22T10:07:56;100573.69;;;39.14;35.29
28628;BME280;15815;46.760;19.604;2023-06-22T10:10:22;100566.19;;;38.95;34.62
28628;BME280;15815;46.760;19.604;2023-06-22T10:12:56;100576.25;;;38.52;36.51
28628;BME280;15815;46.760;19.604;2023-06-22T10:15:25;100562.53;;;38.87;35.86
28628;BME280;15815;46.760;19.604;2023-06-22T10:17:50;100568.09;;;38.43;35.41
28628;BME280;15815;46.760;19.604;2023-06-22T10:20:16;100560.34;;;38.88;34.91
28628;BME280;15815;46.760;19.604;2023-06-22T10:22:43;100565.03;;;38.66;35.97
28628;BME280;15815;46.760;19.604;2023-06-22T10:25:10;100569.53;;;38.59;34.98
28628;BME280;15815;46.760;19.604;2023-06-22T10:27:36;100553.66;;;38.95;36.40
28628;BME280;15815;46.760;19.604;2023-06-22T10:30:02;100560.72;;;38.67;37.23
28628;BME280;15815;46.760;19.604;2023-06-22T10:32:28;100554.38;;;38.46;36.04
28628;BME280;15815;46.760;19.604;2023-06-22T10:34:54;100555.94;;;38.47;36.55
28628;BME280;15815;46.760;19.604;2023-06-22T10:37:22;100552.69;;;38.60;36.20
28628;BME280;15815;46.760;19.604;2023-06-22T10:39:48;100565.47;;;38.55;36.80
28628;BME280;15815;46.760;19.604;2023-06-22T10:42:14;100553.38;;;38.51;36.82
28628;BME280;15815;46.760;19.604;2023-06-22T10:44:42;100564.38;;;38.43;35.59
28628;BME280;15815;46.760;19.604;2023-06-22T10:47:08;100553.19;;;38.01;37.49
28628;BME280;15815;46.760;19.604;2023-06-22T10:49:33;100561.25;;;38.41;37.87
28628;BME280;15815;46.760;19.604;2023-06-22T10:51:59;100549.75;;;37.80;38.05
28628;BME280;15815;46.760;19.604;2023-06-22T10:54:25;100543.22;;;38.04;37.16
28628;BME280;15815;46.760;19.604;2023-06-22T10:56:50;100548.47;;;38.13;38.19
28628;BME280;15815;46.760;19.604;2023-06-22T10:59:16;100547.31;;;37.38;37.65
28628;BME280;15815;46.760;19.604;2023-06-22T11:01:41;100543.94;;;37.49;37.50
28628;BME280;15815;46.760;19.604;2023-06-22T11:04:07;100532.28;;;37.34;37.63
28628;BME280;15815;46.760;19.604;2023-06-22T11:06:33;100537.47;;;36.59;39.10
28628;BME280;15815;46.760;19.604;2023-06-22T11:08:58;100537.69;;;35.95;38.96
28628;BME280;15815;46.760;19.604;2023-06-22T11:11:25;100524.91;;;36.20;39.16
28628;BME280;15815;46.760;19.604;2023-06-22T11:13:52;100530.31;;;36.09;39.42
28628;BME280;15815;46.760;19.604;2023-06-22T11:16:18;100521.63;;;36.32;39.08
28628;BME280;15815;46.760;19.604;2023-06-22T11:18:43;100528.50;;;36.65;38.85
28628;BME280;15815;46.760;19.604;2023-06-22T11:21:09;100514.50;;;36.12;40.37
28628;BME280;15815;46.760;19.604;2023-06-22T11:23:34;100510.25;;;36.20;40.49
28628;BME280;15815;46.760;19.604;2023-06-22T11:26:00;100521.88;;;35.98;41.03
28628;BME280;15815;46.760;19.604;2023-06-22T11:28:25;100511.16;;;35.92;41.17
28628;BME280;15815;46.760;19.604;2023-06-22T11:30:52;100509.31;;;35.46;42.42
28628;BME280;15815;46.760;19.604;2023-06-22T11:33:17;100513.41;;;35.43;41.79
28628;BME280;15815;46.760;19.604;2023-06-22T11:35:43;100516.09;;;35.77;40.71
28628;BME280;15815;46.760;19.604;2023-06-22T11:38:09;100509.44;;;36.05;40.32
28628;BME280;15815;46.760;19.604;2023-06-22T11:40:34;100518.91;;;36.41;41.37
28628;BME280;15815;46.760;19.604;2023-06-22T11:43:00;100513.81;;;36.34;40.48
28628;BME280;15815;46.760;19.604;2023-06-22T11:45:26;100520.91;;;36.62;40.51
28628;BME280;15815;46.760;19.604;2023-06-22T11:47:52;100502.56;;;35.95;40.37
28628;BME280;15815;46.760;19.604;2023-06-22T11:50:18;100506.03;;;35.85;40.72
28628;BME280;15815;46.760;19.604;2023-06-22T11:52:43;100514.91;;;36.08;40.36
28628;BME280;15815;46.760;19.604;2023-06-22T11:55:09;100502.31;;;36.36;41.37
28628;BME280;15815;46.760;19.604;2023-06-22T11:57:38;100500.28;;;36.16;40.72
28628;BME280;15815;46.760;19.604;2023-06-22T12:00:05;100503.78;;;36.14;40.59
28628;BME280;15815;46.760;19.604;2023-06-22T12:02:31;100503.38;;;36.10;39.87
28628;BME280;15815;46.760;19.604;2023-06-22T12:04:59;100495.94;;;35.94;40.92
28628;BME280;15815;46.760;19.604;2023-06-22T12:07:25;100494.06;;;36.19;40.41
28628;BME280;15815;46.760;19.604;2023-06-22T12:09:50;100494.28;;;36.29;40.17
28628;BME280;15815;46.760;19.604;2023-06-22T12:12:16;100485.38;;;36.58;40.34
28628;BME280;15815;46.760;19.604;2023-06-22T12:14:41;100477.19;;;36.48;40.41
28628;BME280;15815;46.760;19.604;2023-06-22T12:17:07;100485.97;;;36.56;41.24
28628;BME280;15815;46.760;19.604;2023-06-22T12:19:32;100477.81;;;35.96;40.48
28628;BME280;15815;46.760;19.604;2023-06-22T12:21:58;100476.53;;;36.27;40.71
28628;BME280;15815;46.760;19.604;2023-06-22T12:24:24;100466.34;;;36.13;40.75
28628;BME280;15815;46.760;19.604;2023-06-22T12:26:49;100479.97;;;36.10;40.61
28628;BME280;15815;46.760;19.604;2023-06-22T12:29:18;100482.34;;;36.12;41.38
28628;BME280;15815;46.760;19.604;2023-06-22T12:31:43;100478.28;;;36.22;40.63
28628;BME280;15815;46.760;19.604;2023-06-22T12:34:09;100461.06;;;36.11;39.58
28628;BME280;15815;46.760;19.604;2023-06-22T12:36:34;100463.94;;;35.88;40.44
28628;BME280;15815;46.760;19.604;2023-06-22T12:39:00;100461.34;;;35.77;41.30
28628;BME280;15815;46.760;19.604;2023-06-22T12:41:25;100451.69;;;35.54;41.47
28628;BME280;15815;46.760;19.604;2023-06-22T12:43:51;100449.72;;;35.20;40.85
28628;BME280;15815;46.760;19.604;2023-06-22T12:46:16;100460.06;;;35.21;41.44
28628;BME280;15815;46.760;19.604;2023-06-22T12:48:42;100446.81;;;35.20;41.32